FAG weather

Fagurhólsmýri Airport
Fagurhólsmýri, Eastern Region, Iceland

Public forecast

Using degrees Celsius for public forecast. Weather courtesy of forecast.io.

Closest aviation weather report (METAR) to Fagurhólsmýri Airport

Report is more than 6 hours old.

Closest report is Hornafjörður Airport, 44.9 nm (83.1 km) NE. Retrieved 2020/05/25 19:00 UTC (9 hours ago):

BIHN 251900Z 21012KT 9999 FEW014 BKN030 08/06 Q1001

Closest aviation forecast (TAF) to Fagurhólsmýri Airport

Closest forecast is Egilsstaðir Airport, 102.4 nm (189.6 km) NNE. Retrieved 2020-05-26 03:19 UTC (54 minutes ago):

TAF BIEG 260114Z 2603/2703 22013KT 9999 SCT025 BKN040 TX12/2615Z TN07/2606Z TEMPO 2609/2615 29020G33KT RA BKN013 OVC020 BECMG 2618/2620 VRB02KT BECMG 2700/2703 23015KT